createdAt,value
2023-01-17T00:00:35.108Z,3.50
2023-01-17T00:01:34.963Z,3.49
2023-01-17T00:02:35.060Z,3.45
2023-01-17T00:03:35.079Z,3.41
2023-01-17T00:04:34.973Z,3.35
2023-01-17T00:05:34.924Z,3.30
2023-01-17T00:06:34.902Z,3.20
2023-01-17T00:07:34.880Z,3.13
2023-01-17T00:08:34.852Z,3.05
2023-01-17T00:09:34.885Z,3.04
2023-01-17T00:10:34.843Z,3.05
2023-01-17T00:11:34.817Z,3.04
2023-01-17T00:12:34.818Z,2.98
2023-01-17T00:13:34.790Z,2.95
2023-01-17T00:14:34.819Z,2.94
2023-01-17T00:15:34.796Z,2.94
2023-01-17T00:16:34.782Z,2.92
2023-01-17T00:17:34.767Z,2.94
2023-01-17T00:18:34.731Z,2.98
2023-01-17T00:19:34.729Z,3.02
2023-01-17T00:20:34.768Z,3.01
2023-01-17T00:21:34.711Z,2.99
2023-01-17T00:22:34.696Z,2.95
2023-01-17T00:23:34.723Z,2.95
2023-01-17T00:24:34.710Z,2.94
2023-01-17T00:25:34.652Z,2.95
2023-01-17T00:26:34.664Z,2.97
2023-01-17T00:27:34.631Z,2.97
2023-01-17T00:28:34.636Z,2.99
2023-01-17T00:29:34.612Z,3.01
2023-01-17T00:30:34.608Z,3.04
2023-01-17T00:31:34.635Z,3.07
2023-01-17T00:32:34.845Z,3.10
2023-01-17T00:33:34.589Z,3.15
2023-01-17T00:34:34.576Z,3.16
2023-01-17T00:35:34.509Z,3.19
2023-01-17T00:36:34.508Z,3.23
2023-01-17T00:37:34.525Z,3.25
2023-01-17T00:38:34.516Z,3.31
2023-01-17T00:39:34.494Z,3.34
2023-01-17T00:40:34.446Z,3.39
2023-01-17T00:41:34.452Z,3.42
2023-01-17T00:42:34.446Z,3.42
2023-01-17T00:43:34.447Z,3.44
2023-01-17T00:44:34.451Z,3.44
2023-01-17T00:45:34.375Z,3.46
2023-01-17T00:46:34.489Z,3.52
2023-01-17T00:47:34.351Z,3.53
2023-01-17T00:48:34.352Z,3.54
2023-01-17T00:49:34.320Z,3.53
2023-01-17T00:50:34.351Z,3.53
2023-01-17T00:51:34.312Z,3.54
2023-01-17T00:52:34.293Z,3.56
2023-01-17T00:53:34.287Z,3.56
2023-01-17T00:54:34.317Z,3.56
2023-01-17T00:55:34.243Z,3.56
2023-01-17T00:56:34.268Z,3.54
2023-01-17T00:57:34.260Z,3.54
2023-01-17T00:58:34.260Z,3.54
2023-01-17T00:59:34.221Z,3.53
2023-01-17T01:00:34.283Z,3.54
2023-01-17T01:01:34.306Z,3.56
2023-01-17T01:02:34.288Z,3.54
2023-01-17T01:03:34.198Z,3.54
2023-01-17T01:04:34.188Z,3.53
2023-01-17T01:05:34.186Z,3.54
2023-01-17T01:06:34.115Z,3.53
2023-01-17T01:07:34.136Z,3.52
2023-01-17T01:08:34.094Z,3.50
2023-01-17T01:09:34.107Z,3.44
2023-01-17T01:10:34.109Z,3.41
2023-01-17T01:11:34.134Z,3.39
2023-01-17T01:12:34.060Z,3.34
2023-01-17T01:13:34.029Z,3.34
2023-01-17T01:14:34.036Z,3.39
2023-01-17T01:15:34.026Z,3.35
2023-01-17T01:16:34.050Z,3.34
2023-01-17T01:17:33.975Z,3.34
2023-01-17T01:18:33.995Z,3.35
2023-01-17T01:19:34.004Z,3.33
2023-01-17T01:20:33.938Z,3.34
2023-01-17T01:21:33.939Z,3.34
2023-01-17T01:22:33.927Z,3.34
2023-01-17T01:23:33.926Z,3.35
2023-01-17T01:24:33.906Z,3.35
2023-01-17T01:25:33.918Z,3.37
2023-01-17T01:26:33.867Z,3.35
2023-01-17T01:27:33.871Z,3.34
2023-01-17T01:28:33.846Z,3.35
2023-01-17T01:29:33.870Z,3.35
2023-01-17T01:30:33.821Z,3.35
2023-01-17T01:31:33.830Z,3.35
2023-01-17T01:32:33.797Z,3.34
2023-01-17T01:33:33.787Z,3.37
2023-01-17T01:34:33.778Z,3.37
2023-01-17T01:35:33.777Z,3.44
2023-01-17T01:36:33.748Z,3.44
2023-01-17T01:37:33.723Z,3.45
2023-01-17T01:38:33.762Z,3.46
2023-01-17T01:39:33.731Z,3.50
2023-01-17T01:40:33.679Z,3.50
2023-01-17T01:41:33.697Z,3.52
2023-01-17T01:42:33.651Z,3.52
2023-01-17T01:43:33.698Z,3.53
2023-01-17T01:44:33.659Z,3.53
2023-01-17T01:45:33.708Z,3.52
2023-01-17T01:46:33.603Z,3.52
2023-01-17T01:47:33.625Z,3.53
2023-01-17T01:48:33.601Z,3.54
2023-01-17T01:49:33.607Z,3.53
2023-01-17T01:50:33.587Z,3.54
2023-01-17T01:51:33.601Z,3.54
2023-01-17T01:52:33.517Z,3.53
2023-01-17T01:53:33.565Z,3.54
2023-01-17T01:54:33.500Z,3.54
2023-01-17T01:55:33.540Z,3.54
2023-01-17T01:56:33.469Z,3.53
2023-01-17T01:57:33.495Z,3.50
2023-01-17T01:58:33.487Z,3.49
2023-01-17T01:59:33.464Z,3.52
2023-01-17T02:00:33.421Z,3.52
2023-01-17T02:01:33.539Z,3.52
2023-01-17T02:02:33.407Z,3.50
2023-01-17T02:03:33.494Z,3.46
2023-01-17T02:04:33.377Z,3.46
2023-01-17T02:05:33.369Z,3.45
2023-01-17T02:06:33.435Z,3.45
2023-01-17T02:07:33.363Z,3.45
2023-01-17T02:08:33.347Z,3.45
2023-01-17T02:09:34.033Z,3.44
2023-01-17T02:10:33.347Z,3.44
2023-01-17T02:11:33.324Z,3.46
2023-01-17T02:12:33.279Z,3.45
2023-01-17T02:13:33.302Z,3.46
2023-01-17T02:14:33.250Z,3.42
2023-01-17T02:15:33.236Z,3.44
2023-01-17T02:16:33.303Z,3.44
2023-01-17T02:17:33.215Z,3.44
2023-01-17T02:18:33.236Z,3.45
2023-01-17T02:19:33.227Z,3.44
2023-01-17T02:20:33.168Z,3.45
2023-01-17T02:21:33.163Z,3.42
2023-01-17T02:22:33.168Z,3.41
2023-01-17T02:23:33.180Z,3.41
2023-01-17T02:24:33.113Z,3.44
2023-01-17T02:25:33.145Z,3.42
2023-01-17T02:26:33.085Z,3.44
2023-01-17T02:27:33.111Z,3.46
2023-01-17T02:28:33.118Z,3.45
2023-01-17T02:29:33.081Z,3.44
2023-01-17T02:30:33.034Z,3.41
2023-01-17T02:31:33.136Z,3.42
2023-01-17T02:32:33.031Z,3.42
2023-01-17T02:33:33.043Z,3.44
2023-01-17T02:34:33.018Z,3.44
2023-01-17T02:35:32.990Z,3.44
2023-01-17T02:36:32.981Z,3.46
2023-01-17T02:37:32.986Z,3.46
2023-01-17T02:38:32.996Z,3.49
2023-01-17T02:39:32.982Z,3.49
2023-01-17T02:40:32.909Z,3.46
2023-01-17T02:41:32.945Z,3.45
2023-01-17T02:42:32.909Z,3.44
2023-01-17T02:43:32.929Z,3.41
2023-01-17T02:44:32.858Z,3.41
2023-01-17T02:45:32.889Z,3.42
2023-01-17T02:46:32.836Z,3.41
2023-01-17T02:47:32.844Z,3.39
2023-01-17T02:48:32.818Z,3.39
2023-01-17T02:49:32.834Z,3.31
2023-01-17T02:50:32.777Z,3.33
2023-01-17T02:51:32.790Z,3.34
2023-01-17T02:52:32.783Z,3.34
2023-01-17T02:53:32.836Z,3.37
2023-01-17T02:54:32.761Z,3.34
2023-01-17T02:55:32.778Z,3.26
2023-01-17T02:56:32.789Z,3.25
2023-01-17T02:57:32.755Z,3.20
2023-01-17T02:58:32.678Z,3.25
2023-01-17T02:59:32.699Z,3.22
2023-01-17T03:00:32.665Z,3.20
2023-01-17T03:01:32.939Z,3.19
2023-01-17T03:02:32.725Z,3.20
2023-01-17T03:03:32.649Z,3.25
2023-01-17T03:04:32.630Z,3.22
2023-01-17T03:05:32.614Z,3.22
2023-01-17T03:06:32.580Z,3.22
2023-01-17T03:07:32.576Z,3.20
2023-01-17T03:08:32.583Z,3.19
2023-01-17T03:09:32.562Z,3.17
2023-01-17T03:10:32.534Z,3.16
2023-01-17T03:11:32.557Z,3.16
2023-01-17T03:12:32.540Z,3.12
2023-01-17T03:13:32.553Z,3.05
2023-01-17T03:14:32.517Z,3.04
2023-01-17T03:15:32.479Z,3.02
2023-01-17T03:16:32.536Z,2.98
2023-01-17T03:17:32.473Z,2.95
2023-01-17T03:18:32.443Z,2.92
2023-01-17T03:19:32.458Z,2.89
2023-01-17T03:20:32.406Z,2.87
2023-01-17T03:21:32.427Z,2.89
2023-01-17T03:22:32.394Z,2.89
2023-01-17T03:23:32.415Z,2.89
2023-01-17T03:24:32.353Z,2.92
2023-01-17T03:25:32.350Z,2.94
2023-01-17T03:26:32.349Z,2.95
2023-01-17T03:27:32.329Z,2.98
2023-01-17T03:28:32.322Z,2.99
2023-01-17T03:29:32.331Z,3.02
2023-01-17T03:30:32.339Z,3.07
2023-01-17T03:31:32.314Z,3.08
2023-01-17T03:32:32.275Z,3.10
2023-01-17T03:33:32.292Z,3.10
2023-01-17T03:34:32.227Z,3.12
2023-01-17T03:35:32.257Z,3.12
2023-01-17T03:36:32.217Z,3.12
2023-01-17T03:37:32.219Z,3.07
2023-01-17T03:38:32.252Z,3.08
2023-01-17T03:39:32.165Z,3.10
2023-01-17T03:40:32.155Z,3.08
2023-01-17T03:41:32.194Z,3.08
2023-01-17T03:42:32.147Z,3.08
2023-01-17T03:43:32.136Z,3.10
2023-01-17T03:44:32.129Z,3.08
2023-01-17T03:45:32.207Z,3.10
2023-01-17T03:46:32.100Z,3.13
2023-01-17T03:47:32.074Z,3.12
2023-01-17T03:48:32.088Z,3.10
2023-01-17T03:49:32.043Z,3.08
2023-01-17T03:50:32.023Z,3.08
2023-01-17T03:51:32.022Z,3.07
2023-01-17T03:52:31.999Z,3.07
2023-01-17T03:53:32.014Z,3.08
2023-01-17T03:54:31.980Z,3.10
2023-01-17T03:55:31.998Z,3.08
2023-01-17T03:56:31.946Z,3.08
2023-01-17T03:57:39.550Z,3.08
2023-01-17T03:58:32.710Z,3.05
2023-01-17T03:59:31.956Z,3.05
2023-01-17T04:00:31.902Z,3.02
2023-01-17T04:01:32.061Z,3.02
2023-01-17T04:02:31.905Z,3.04
2023-01-17T04:03:31.932Z,3.02
2023-01-17T04:04:31.878Z,3.01
2023-01-17T04:05:31.847Z,3.02
2023-01-17T04:06:31.831Z,3.01
2023-01-17T04:07:31.845Z,2.99
2023-01-17T04:08:31.847Z,2.99
2023-01-17T04:09:31.835Z,3.01
2023-01-17T04:10:31.796Z,3.01
2023-01-17T04:11:31.818Z,3.02
2023-01-17T04:12:31.739Z,3.05
2023-01-17T04:13:31.758Z,3.04
2023-01-17T04:14:31.746Z,3.04
2023-01-17T04:15:31.734Z,3.07
2023-01-17T04:16:31.860Z,3.02
2023-01-17T04:17:31.696Z,3.01
2023-01-17T04:18:31.698Z,3.01
2023-01-17T04:19:31.696Z,2.98
2023-01-17T04:20:31.682Z,2.98
2023-01-17T04:21:31.664Z,2.99
2023-01-17T04:22:31.660Z,3.02
2023-01-17T04:23:31.624Z,2.99
2023-01-17T04:24:31.642Z,2.97
2023-01-17T04:25:31.609Z,2.98
2023-01-17T04:26:31.589Z,2.99
2023-01-17T04:27:31.557Z,2.98
2023-01-17T04:28:31.604Z,2.95
2023-01-17T04:29:31.559Z,2.94
2023-01-17T04:30:31.619Z,2.95
2023-01-17T04:31:31.600Z,2.98
2023-01-17T04:32:31.545Z,3.01
2023-01-17T04:33:31.492Z,2.95
2023-01-17T04:34:31.482Z,2.97
2023-01-17T04:35:31.486Z,2.98
2023-01-17T04:36:31.481Z,2.99
2023-01-17T04:37:31.451Z,2.98
2023-01-17T04:38:31.442Z,2.99
2023-01-17T04:39:31.437Z,3.02
2023-01-17T04:40:31.402Z,3.02
2023-01-17T04:41:31.384Z,3.02
2023-01-17T04:42:31.436Z,3.01
2023-01-17T04:43:31.370Z,3.01
2023-01-17T04:44:31.352Z,2.99
2023-01-17T04:45:31.364Z,3.04
2023-01-17T04:46:31.330Z,2.99
2023-01-17T04:47:31.314Z,2.99
2023-01-17T04:48:31.312Z,2.98
2023-01-17T04:49:31.332Z,2.98
2023-01-17T04:50:31.288Z,2.97
2023-01-17T04:51:31.248Z,2.92
2023-01-17T04:52:31.255Z,2.95
2023-01-17T04:53:31.261Z,2.95
2023-01-17T04:54:31.240Z,2.89
2023-01-17T04:55:31.198Z,2.86
2023-01-17T04:56:31.237Z,2.83
2023-01-17T04:57:31.183Z,2.76
2023-01-17T04:58:31.212Z,2.76
2023-01-17T04:59:31.150Z,2.77
2023-01-17T05:00:31.214Z,2.76
2023-01-17T05:01:31.264Z,2.77
2023-01-17T05:02:31.206Z,2.77
2023-01-17T05:03:31.132Z,2.77
2023-01-17T05:04:31.151Z,2.76
2023-01-17T05:05:31.112Z,2.74
2023-01-17T05:06:31.100Z,2.73
2023-01-17T05:07:31.047Z,2.76
2023-01-17T05:08:31.078Z,2.77
2023-01-17T05:09:31.023Z,2.79
2023-01-17T05:10:31.049Z,2.76
2023-01-17T05:11:31.014Z,2.77
2023-01-17T05:12:31.030Z,2.79
2023-01-17T05:13:31.020Z,2.74
2023-01-17T05:14:31.016Z,2.74
2023-01-17T05:15:31.002Z,2.76
2023-01-17T05:16:30.979Z,2.77
2023-01-17T05:17:30.979Z,2.79
2023-01-17T05:18:30.965Z,2.77
2023-01-17T05:19:30.939Z,2.77
2023-01-17T05:20:30.945Z,2.79
2023-01-17T05:21:30.874Z,2.80
2023-01-17T05:22:30.905Z,2.83
2023-01-17T05:23:30.914Z,2.84
2023-01-17T05:24:30.851Z,2.86
2023-01-17T05:25:30.832Z,2.86
2023-01-17T05:26:30.851Z,2.86
2023-01-17T05:27:30.804Z,2.89
2023-01-17T05:28:30.815Z,2.87
2023-01-17T05:29:30.952Z,2.86
2023-01-17T05:30:30.807Z,2.84
2023-01-17T05:31:30.771Z,2.84
2023-01-17T05:32:30.750Z,2.84
2023-01-17T05:33:30.740Z,2.86
2023-01-17T05:34:30.745Z,2.86
2023-01-17T05:35:30.707Z,2.87
2023-01-17T05:36:30.689Z,2.87
2023-01-17T05:37:30.707Z,2.89
2023-01-17T05:38:30.682Z,2.86
2023-01-17T05:39:30.650Z,2.86
2023-01-17T05:40:30.681Z,2.87
2023-01-17T05:41:30.633Z,2.87
2023-01-17T05:42:30.617Z,2.84
2023-01-17T05:43:30.643Z,2.83
2023-01-17T05:44:30.627Z,2.83
2023-01-17T05:45:30.604Z,2.81
2023-01-17T05:46:30.688Z,2.81
2023-01-17T05:47:30.590Z,2.81
2023-01-17T05:48:30.582Z,2.81
2023-01-17T05:49:30.518Z,2.81
2023-01-17T05:50:30.551Z,2.81
2023-01-17T05:51:30.495Z,2.84
2023-01-17T05:52:30.492Z,2.84
2023-01-17T05:53:30.486Z,2.86
2023-01-17T05:54:30.504Z,2.83
2023-01-17T05:55:30.450Z,2.81
2023-01-17T05:56:30.480Z,2.80
2023-01-17T05:57:30.451Z,2.77
2023-01-17T05:58:30.435Z,2.79
2023-01-17T05:59:36.990Z,2.76
2023-01-17T06:00:31.428Z,2.74
2023-01-17T06:01:30.391Z,2.73
2023-01-17T06:02:30.438Z,2.69
2023-01-17T06:03:30.369Z,2.66
2023-01-17T06:04:30.387Z,2.65
2023-01-17T06:05:30.324Z,2.62
2023-01-17T06:06:30.339Z,2.62
2023-01-17T06:07:30.327Z,2.62
2023-01-17T06:08:30.304Z,2.62
2023-01-17T06:09:30.289Z,2.62
2023-01-17T06:10:30.290Z,2.62
2023-01-17T06:11:30.285Z,2.61
2023-01-17T06:12:30.282Z,2.61
2023-01-17T06:13:30.255Z,2.58
2023-01-17T06:14:30.256Z,2.58
2023-01-17T06:15:30.215Z,2.59
2023-01-17T06:16:30.198Z,2.61
2023-01-17T06:17:30.194Z,2.59
2023-01-17T06:18:30.186Z,2.58
2023-01-17T06:19:30.164Z,2.55
2023-01-17T06:20:30.148Z,2.53
2023-01-17T06:21:30.151Z,2.53
2023-01-17T06:22:30.151Z,2.55
2023-01-17T06:23:30.118Z,2.50
2023-01-17T06:24:30.122Z,2.53
2023-01-17T06:25:30.083Z,2.55
2023-01-17T06:26:30.113Z,2.50
2023-01-17T06:27:30.061Z,2.48
2023-01-17T06:28:30.046Z,2.51
2023-01-17T06:29:30.007Z,2.53
2023-01-17T06:30:30.019Z,2.53
2023-01-17T06:31:30.050Z,2.47
2023-01-17T06:32:30.010Z,2.45
2023-01-17T06:33:30.003Z,2.45
2023-01-17T06:34:29.966Z,2.43
2023-01-17T06:35:29.963Z,2.41
2023-01-17T06:36:29.939Z,2.41
2023-01-17T06:37:29.913Z,2.41
2023-01-17T06:38:29.931Z,2.41
2023-01-17T06:39:29.895Z,2.41
2023-01-17T06:40:29.892Z,2.40
2023-01-17T06:41:29.894Z,2.38
2023-01-17T06:42:29.880Z,2.37
2023-01-17T06:43:29.874Z,2.37
2023-01-17T06:44:29.866Z,2.38
2023-01-17T06:45:29.826Z,2.40
2023-01-17T06:46:29.863Z,2.38
2023-01-17T06:47:29.789Z,2.38
2023-01-17T06:48:29.815Z,2.38
2023-01-17T06:49:29.763Z,2.37
2023-01-17T06:50:29.778Z,2.36
2023-01-17T06:51:29.775Z,2.37
2023-01-17T06:52:29.758Z,2.38
2023-01-17T06:53:29.744Z,2.38
2023-01-17T06:54:29.841Z,2.38
2023-01-17T06:55:29.850Z,2.41
2023-01-17T06:56:29.810Z,2.40
2023-01-17T06:57:29.688Z,2.40
2023-01-17T06:58:29.676Z,2.41
2023-01-17T06:59:29.640Z,2.41
2023-01-17T07:00:29.743Z,2.38
2023-01-17T07:01:29.719Z,2.37
2023-01-17T07:02:29.608Z,2.41
2023-01-17T07:03:29.665Z,2.43
2023-01-17T07:04:29.595Z,2.40
2023-01-17T07:05:29.561Z,2.37
2023-01-17T07:06:29.591Z,2.38
2023-01-17T07:07:29.528Z,2.38
2023-01-17T07:08:29.547Z,2.38
2023-01-17T07:09:29.506Z,2.40
2023-01-17T07:10:29.536Z,2.40
2023-01-17T07:11:29.480Z,2.40
2023-01-17T07:12:29.478Z,2.40
2023-01-17T07:13:29.490Z,2.38
2023-01-17T07:14:29.485Z,2.41
2023-01-17T07:15:29.453Z,2.41
2023-01-17T07:16:29.476Z,2.40
2023-01-17T07:17:29.403Z,2.41
2023-01-17T07:18:29.416Z,2.40
2023-01-17T07:19:29.376Z,2.43
2023-01-17T07:20:29.407Z,2.43
2023-01-17T07:21:29.353Z,2.43
2023-01-17T07:22:29.364Z,2.44
2023-01-17T07:23:29.348Z,2.44
2023-01-17T07:24:29.323Z,2.41
2023-01-17T07:25:29.305Z,2.43
2023-01-17T07:26:29.340Z,2.40
2023-01-17T07:27:29.301Z,2.40
2023-01-17T07:28:29.310Z,2.40
2023-01-17T07:29:29.278Z,2.37
2023-01-17T07:30:29.278Z,2.36
2023-01-17T07:31:29.333Z,2.36
2023-01-17T07:32:29.223Z,2.36
2023-01-17T07:33:29.257Z,2.33
2023-01-17T07:34:29.204Z,2.37
2023-01-17T07:35:29.213Z,2.36
2023-01-17T07:36:29.189Z,2.37
2023-01-17T07:37:29.150Z,2.38
2023-01-17T07:38:29.218Z,2.36
2023-01-17T07:39:29.131Z,2.37
2023-01-17T07:40:29.124Z,2.33
2023-01-17T07:41:29.105Z,2.37
2023-01-17T07:42:29.126Z,2.38
2023-01-17T07:43:29.120Z,2.37
2023-01-17T07:44:29.078Z,2.37
2023-01-17T07:45:29.061Z,2.40
2023-01-17T07:46:29.129Z,2.40
2023-01-17T07:47:29.051Z,2.41
2023-01-17T07:48:29.042Z,2.43
2023-01-17T07:49:29.009Z,2.44
2023-01-17T07:50:29.033Z,2.44
2023-01-17T07:51:28.988Z,2.47
2023-01-17T07:52:29.007Z,2.48
2023-01-17T07:53:28.958Z,2.50
2023-01-17T07:54:28.975Z,2.48
2023-01-17T07:55:28.954Z,2.51
2023-01-17T07:56:28.925Z,2.51
2023-01-17T07:57:28.925Z,2.51
2023-01-17T07:58:28.906Z,2.50
2023-01-17T07:59:28.899Z,2.50
2023-01-17T08:00:28.909Z,2.53
2023-01-17T08:01:28.960Z,2.55
2023-01-17T08:02:28.884Z,2.58
2023-01-17T08:03:28.877Z,2.58
2023-01-17T08:04:28.827Z,2.59
2023-01-17T08:05:28.816Z,2.58
2023-01-17T08:06:28.818Z,2.58
2023-01-17T08:07:28.796Z,2.58
2023-01-17T08:08:28.820Z,2.58
2023-01-17T08:09:28.762Z,2.58
2023-01-17T08:10:28.762Z,2.58
2023-01-17T08:11:28.731Z,2.56
2023-01-17T08:12:28.722Z,2.58
2023-01-17T08:13:29.914Z,2.56
2023-01-17T08:14:28.728Z,2.56
2023-01-17T08:15:28.673Z,2.56
2023-01-17T08:16:28.845Z,2.53
2023-01-17T08:17:28.667Z,2.53
2023-01-17T08:18:28.664Z,2.53
2023-01-17T08:19:28.671Z,2.50
2023-01-17T08:20:28.725Z,2.48
2023-01-17T08:21:28.673Z,2.45
2023-01-17T08:22:28.589Z,2.44
2023-01-17T08:23:28.636Z,2.43
2023-01-17T08:24:28.638Z,2.45
2023-01-17T08:25:28.637Z,2.44
2023-01-17T08:26:28.600Z,2.45
2023-01-17T08:27:28.556Z,2.48
2023-01-17T08:28:28.590Z,2.47
2023-01-17T08:29:28.528Z,2.48
2023-01-17T08:30:28.488Z,2.51
2023-01-17T08:31:28.564Z,2.50
2023-01-17T08:32:28.475Z,2.50
2023-01-17T08:33:28.524Z,2.51
2023-01-17T08:34:28.476Z,2.51
2023-01-17T08:35:28.499Z,2.51
2023-01-17T08:36:28.432Z,2.51
2023-01-17T08:37:28.453Z,2.55
2023-01-17T08:38:28.421Z,2.55
2023-01-17T08:39:29.368Z,2.53
2023-01-17T08:40:28.346Z,2.51
2023-01-17T08:41:28.371Z,2.51
2023-01-17T08:42:28.353Z,2.50
2023-01-17T08:43:28.390Z,2.48
2023-01-17T08:44:28.332Z,2.48
2023-01-17T08:45:28.398Z,2.48
2023-01-17T08:46:28.371Z,2.48
2023-01-17T08:47:28.306Z,2.51
2023-01-17T08:48:28.295Z,2.50
2023-01-17T08:49:28.943Z,2.48
2023-01-17T08:50:28.226Z,2.51
2023-01-17T08:51:28.293Z,2.51
2023-01-17T08:52:28.264Z,2.55
2023-01-17T08:53:28.251Z,2.55
2023-01-17T08:54:28.228Z,2.53
2023-01-17T08:55:28.180Z,2.55
2023-01-17T08:56:28.186Z,2.55
2023-01-17T08:57:28.223Z,2.55
2023-01-17T08:58:30.293Z,2.55
2023-01-17T08:59:28.159Z,2.56
2023-01-17T09:00:28.160Z,2.58
2023-01-17T09:01:28.392Z,2.58
2023-01-17T09:02:28.100Z,2.58
2023-01-17T09:03:28.102Z,2.61
2023-01-17T09:04:28.177Z,2.59
2023-01-17T09:05:28.069Z,2.61
2023-01-17T09:06:28.047Z,2.62
2023-01-17T09:07:28.048Z,2.62
2023-01-17T09:08:28.059Z,2.65
2023-01-17T09:09:28.001Z,2.69
2023-01-17T09:10:28.034Z,2.71
2023-01-17T09:11:27.999Z,2.77
2023-01-17T09:12:27.986Z,2.81
2023-01-17T09:13:27.995Z,2.86
2023-01-17T09:14:27.937Z,2.87
2023-01-17T09:15:27.981Z,2.92
2023-01-17T09:16:27.991Z,2.97
2023-01-17T09:17:27.923Z,2.97
2023-01-17T09:18:27.947Z,2.99
2023-01-17T09:19:27.934Z,2.99
2023-01-17T09:20:27.845Z,3.01
2023-01-17T09:21:27.864Z,3.02
2023-01-17T09:22:27.874Z,3.04
2023-01-17T09:23:27.935Z,3.02
2023-01-17T09:24:27.795Z,3.02
2023-01-17T09:25:27.808Z,3.02
2023-01-17T09:26:27.787Z,3.04
2023-01-17T09:27:27.774Z,3.05
2023-01-17T09:28:27.787Z,3.07
2023-01-17T09:29:27.784Z,3.07
2023-01-17T09:30:27.843Z,3.08
2023-01-17T09:31:27.776Z,3.13
2023-01-17T09:32:27.720Z,3.13
2023-01-17T09:33:27.713Z,3.17
2023-01-17T09:34:27.674Z,3.20
2023-01-17T09:35:27.701Z,3.25
2023-01-17T09:36:27.644Z,3.26
2023-01-17T09:37:27.646Z,3.28
2023-01-17T09:38:27.651Z,3.30
2023-01-17T09:39:28.820Z,3.30
2023-01-17T09:40:27.592Z,3.25
2023-01-17T09:41:27.817Z,3.25
2023-01-17T09:42:27.606Z,3.25
2023-01-17T09:43:27.641Z,3.26
2023-01-17T09:44:27.586Z,3.28
2023-01-17T09:45:27.542Z,3.30
2023-01-17T09:46:27.551Z,3.31
2023-01-17T09:47:27.620Z,3.35
2023-01-17T09:48:27.533Z,3.35
2023-01-17T09:49:27.489Z,3.41
2023-01-17T09:50:27.489Z,3.44
2023-01-17T09:51:27.459Z,3.46
2023-01-17T09:52:27.470Z,3.45
2023-01-17T09:53:27.451Z,3.46
2023-01-17T09:54:27.452Z,3.50
2023-01-17T09:55:27.444Z,3.52
2023-01-17T09:56:27.436Z,3.56
2023-01-17T09:57:27.454Z,3.59
2023-01-17T09:58:27.505Z,3.60
2023-01-17T09:59:33.259Z,3.59
2023-01-17T10:00:28.517Z,3.60
2023-01-17T10:01:27.530Z,3.64
2023-01-17T10:02:27.551Z,3.64
2023-01-17T10:03:27.475Z,3.64
2023-01-17T10:04:27.304Z,3.63
2023-01-17T10:05:27.335Z,3.68
2023-01-17T10:06:27.285Z,3.72
2023-01-17T10:08:20.576Z,3.84
2023-01-17T10:09:21.431Z,3.88
2023-01-17T10:10:20.550Z,3.92
2023-01-17T10:11:20.400Z,3.93
2023-01-17T10:12:20.360Z,3.93
2023-01-17T10:13:20.379Z,3.89
2023-01-17T10:14:20.350Z,3.90
2023-01-17T10:15:21.203Z,3.89
2023-01-17T10:16:20.431Z,3.90
2023-01-17T10:17:20.340Z,3.93
2023-01-17T10:18:29.594Z,3.99
2023-01-17T10:19:21.338Z,4.02
2023-01-17T10:20:20.288Z,4.07
2023-01-17T10:21:20.267Z,4.10
2023-01-17T10:22:20.289Z,4.11
2023-01-17T10:23:20.312Z,4.13
2023-01-17T10:24:20.234Z,4.16
2023-01-17T10:25:20.194Z,4.14
2023-01-17T10:26:20.196Z,4.10
2023-01-17T10:27:20.189Z,4.07
2023-01-17T10:28:20.430Z,4.00
2023-01-17T10:29:21.131Z,3.99
2023-01-17T10:30:20.217Z,3.98
2023-01-17T10:31:20.107Z,3.95
2023-01-17T10:32:20.153Z,3.95
2023-01-17T10:33:20.113Z,3.93
2023-01-17T10:34:20.133Z,3.90
2023-01-17T10:35:20.141Z,3.92
2023-01-17T10:36:20.133Z,3.92
2023-01-17T10:37:20.076Z,3.90
2023-01-17T10:38:20.876Z,3.89
2023-01-17T10:39:20.040Z,3.84
2023-01-17T10:40:20.165Z,3.84
2023-01-17T10:41:20.019Z,3.81
2023-01-17T10:42:19.985Z,3.81
2023-01-17T10:43:19.957Z,3.80
2023-01-17T10:44:20.507Z,3.77
2023-01-17T10:45:20.173Z,3.77
2023-01-17T10:46:20.141Z,3.72
2023-01-17T10:47:19.952Z,3.74
2023-01-17T10:48:22.423Z,3.74
2023-01-17T10:49:19.948Z,3.72
2023-01-17T10:50:19.897Z,3.72
2023-01-17T10:51:19.927Z,3.72
2023-01-17T10:52:19.929Z,3.70
2023-01-17T10:53:19.889Z,3.71
2023-01-17T10:54:19.856Z,3.72
2023-01-17T10:55:19.817Z,3.72
2023-01-17T10:56:19.859Z,3.74
2023-01-17T10:57:19.898Z,3.74
2023-01-17T10:58:19.863Z,3.75
2023-01-17T10:59:19.789Z,3.77
2023-01-17T11:00:19.741Z,3.80
2023-01-17T11:01:19.893Z,3.82
2023-01-17T11:02:20.008Z,3.84
2023-01-17T11:03:19.819Z,3.86
2023-01-17T11:04:19.691Z,3.88
2023-01-17T11:05:19.856Z,3.84
2023-01-17T11:06:19.724Z,3.90
2023-01-17T11:07:19.721Z,3.92
2023-01-17T11:08:19.684Z,3.96
2023-01-17T11:09:19.671Z,4.00
2023-01-17T11:10:19.616Z,4.04
2023-01-17T11:11:19.616Z,4.07
2023-01-17T11:12:19.670Z,4.07
2023-01-17T11:13:19.624Z,4.11
2023-01-17T11:14:19.592Z,4.11
2023-01-17T11:15:19.596Z,4.16
2023-01-17T11:16:19.584Z,4.16
2023-01-17T11:17:19.605Z,4.11
2023-01-17T11:18:19.573Z,4.07
2023-01-17T11:19:19.564Z,4.04
2023-01-17T11:20:19.534Z,4.06
2023-01-17T11:21:19.523Z,4.06
2023-01-17T11:22:19.480Z,4.08
2023-01-17T11:23:19.455Z,4.08
2023-01-17T11:24:19.495Z,4.06
2023-01-17T11:25:20.249Z,4.04
2023-01-17T11:26:19.614Z,4.04
2023-01-17T11:27:19.404Z,4.02
2023-01-17T11:28:19.425Z,4.06
2023-01-17T11:29:19.391Z,4.07
2023-01-17T11:30:19.436Z,4.08
2023-01-17T11:31:19.489Z,4.06
2023-01-17T11:32:19.399Z,4.02
2023-01-17T11:33:19.349Z,4.00
2023-01-17T11:34:19.339Z,4.02
2023-01-17T11:35:19.325Z,3.99
2023-01-17T11:36:19.296Z,3.98
2023-01-17T11:37:19.347Z,3.96
2023-01-17T11:38:19.254Z,3.98
2023-01-17T11:39:19.289Z,3.98
2023-01-17T11:40:19.300Z,3.96
2023-01-17T11:41:19.269Z,3.99
2023-01-17T11:42:19.276Z,3.98
2023-01-17T11:43:19.245Z,3.96
2023-01-17T11:44:19.184Z,3.93
2023-01-17T11:45:19.198Z,3.90
2023-01-17T11:46:19.207Z,3.86
2023-01-17T11:47:19.341Z,3.84
2023-01-17T11:48:19.311Z,3.82
2023-01-17T11:49:19.188Z,3.82
2023-01-17T11:50:19.137Z,3.81
2023-01-17T11:51:19.165Z,3.84
2023-01-17T11:52:19.104Z,3.88
2023-01-17T11:53:19.125Z,3.88
2023-01-17T11:54:19.084Z,3.88
2023-01-17T11:55:19.097Z,3.92
2023-01-17T11:56:19.041Z,3.93
2023-01-17T11:57:19.042Z,3.95
2023-01-17T11:58:19.019Z,3.96
2023-01-17T11:59:19.043Z,3.99
2023-01-17T12:00:18.992Z,3.98
2023-01-17T12:01:19.033Z,3.99
2023-01-17T12:02:18.942Z,4.02
2023-01-17T12:03:19.024Z,4.02
2023-01-17T12:04:18.923Z,4.02
2023-01-17T12:05:18.934Z,4.06
2023-01-17T12:06:18.964Z,4.10
2023-01-17T12:07:18.935Z,4.10
2023-01-17T12:08:19.053Z,4.11
2023-01-17T12:09:18.884Z,4.13
2023-01-17T12:10:18.848Z,4.16
2023-01-17T12:11:18.910Z,4.17
2023-01-17T12:12:18.818Z,4.18
2023-01-17T12:13:18.839Z,4.21
2023-01-17T12:14:18.828Z,4.24
2023-01-17T12:15:18.783Z,4.25
2023-01-17T12:16:18.871Z,4.25
2023-01-17T12:17:18.809Z,4.26
2023-01-17T12:18:18.758Z,4.29
2023-01-17T12:19:18.791Z,4.29
2023-01-17T12:20:18.749Z,4.31
2023-01-17T12:21:18.758Z,4.28
2023-01-17T12:22:18.688Z,4.29
2023-01-17T12:23:18.726Z,4.25
2023-01-17T12:24:18.687Z,4.21
2023-01-17T12:25:18.699Z,4.24
2023-01-17T12:26:18.661Z,4.20
2023-01-17T12:27:18.657Z,4.20
2023-01-17T12:28:18.625Z,4.20
2023-01-17T12:29:18.629Z,4.20
2023-01-17T12:30:18.598Z,4.20
2023-01-17T12:31:18.670Z,4.24
2023-01-17T12:32:18.593Z,4.20
2023-01-17T12:33:18.653Z,4.18
2023-01-17T12:34:18.575Z,4.21
2023-01-17T12:35:18.527Z,4.20
2023-01-17T12:36:18.522Z,4.20
2023-01-17T12:37:18.533Z,4.18
2023-01-17T12:38:31.861Z,4.17
2023-01-17T12:39:19.514Z,4.13
2023-01-17T12:40:18.463Z,4.11
2023-01-17T12:41:18.480Z,4.08
2023-01-17T12:42:18.434Z,4.08
2023-01-17T12:43:18.477Z,4.07
2023-01-17T12:44:18.441Z,4.08
2023-01-17T12:45:18.398Z,4.07
2023-01-17T12:46:18.411Z,4.07
2023-01-17T12:47:18.399Z,4.10
2023-01-17T12:48:18.448Z,4.10
2023-01-17T12:49:18.377Z,4.08
2023-01-17T12:50:18.354Z,4.10
2023-01-17T12:51:18.360Z,4.07
2023-01-17T12:52:18.373Z,4.07
2023-01-17T12:53:18.356Z,4.08
2023-01-17T12:54:18.292Z,4.10
2023-01-17T12:55:18.307Z,4.10
2023-01-17T12:56:18.272Z,4.11
2023-01-17T12:57:18.257Z,4.10
2023-01-17T12:58:18.282Z,4.13
2023-01-17T12:59:18.257Z,4.11
2023-01-17T13:00:18.194Z,4.14
2023-01-17T13:01:18.335Z,4.14
2023-01-17T13:02:18.242Z,4.16
2023-01-17T13:03:18.216Z,4.17
2023-01-17T13:04:18.162Z,4.18
2023-01-17T13:05:18.150Z,4.24
2023-01-17T13:06:18.120Z,4.21
2023-01-17T13:07:18.138Z,4.17
2023-01-17T13:08:18.118Z,4.17
2023-01-17T13:09:18.118Z,4.17
2023-01-17T13:10:18.095Z,4.18
2023-01-17T13:11:18.069Z,4.20
2023-01-17T13:12:18.140Z,4.21
2023-01-17T13:13:18.067Z,4.21
2023-01-17T13:14:18.025Z,4.24
2023-01-17T13:15:18.111Z,4.25
2023-01-17T13:16:18.034Z,4.25
2023-01-17T13:17:18.028Z,4.25
2023-01-17T13:18:18.094Z,4.28
2023-01-17T13:19:17.985Z,4.28